Time;durP1;ratioP1;P1;durP2;ratioP2;P2;SDS_P1;SDS_P2;PMS_P1;PMS_P2;Temp;Humidity;BMP_temperature;BMP_pressure;BME280_temperature;BME280_humidity;BME280_pressure;Samples;Min_cycle;Max_cycle;Signal;HPM_P1;HPM_P2
2023/02/04 00:00:47;;;;;;;19.55;3.95;;;9.70;99.90;;;;;;5036931;28;20392;-57
2023/02/04 00:03:15;;;;;;;18.15;4.13;;;9.70;99.90;;;;;;5033270;28;20026;-60
2023/02/04 00:05:41;;;;;;;11.18;4.28;;;9.70;99.90;;;;;;5014931;28;20026;-60
2023/02/04 00:08:07;;;;;;;14.40;3.70;;;9.70;99.90;;;;;;5012965;28;20041;-59
2023/02/04 00:10:33;;;;;;;16.17;3.92;;;9.80;99.90;;;;;;5013814;28;20113;-57
2023/02/04 00:12:59;;;;;;;13.32;4.25;;;9.70;99.90;;;;;;5014558;28;20034;-59
2023/02/04 00:15:24;;;;;;;13.75;3.67;;;9.80;99.90;;;;;;5013824;28;20107;-59
2023/02/04 00:17:50;;;;;;;15.73;4.40;;;9.70;99.90;;;;;;5013917;28;20057;-60
2023/02/04 00:20:17;;;;;;;11.75;3.60;;;9.70;99.90;;;;;;5013872;28;20051;-60
2023/02/04 00:22:42;;;;;;;14.32;2.88;;;9.70;99.90;;;;;;5013716;28;20026;-59
2023/02/04 00:25:08;;;;;;;14.80;3.33;;;9.70;99.90;;;;;;5014820;28;20097;-59
2023/02/04 00:27:33;;;;;;;13.93;3.75;;;9.70;99.90;;;;;;5014860;28;20026;-59
2023/02/04 00:29:59;;;;;;;10.40;3.30;;;9.60;99.90;;;;;;5014865;28;20029;-60
2023/02/04 00:32:24;;;;;;;18.65;3.60;;;9.60;99.90;;;;;;5012665;28;20044;-59
2023/02/04 00:34:50;;;;;;;21.10;4.13;;;9.60;99.90;;;;;;5013748;28;20026;-55
2023/02/04 00:37:15;;;;;;;12.40;2.75;;;9.60;99.90;;;;;;5013831;28;20026;-58
2023/02/04 00:39:41;;;;;;;15.85;2.92;;;9.60;99.90;;;;;;5013084;28;20018;-59
2023/02/04 00:42:07;;;;;;;10.60;3.50;;;9.50;99.90;;;;;;5013392;28;20022;-59
2023/02/04 00:44:32;;;;;;;16.85;4.15;;;9.50;99.90;;;;;;5014353;28;20032;-59
2023/02/04 00:46:58;;;;;;;17.88;3.85;;;9.50;99.90;;;;;;5014394;28;20515;-56
2023/02/04 00:49:24;;;;;;;15.35;4.00;;;9.50;99.90;;;;;;5014504;28;20032;-56
2023/02/04 00:51:50;;;;;;;14.65;3.20;;;9.60;99.90;;;;;;5015122;28;20519;-52
2023/02/04 00:54:15;;;;;;;10.27;2.67;;;9.50;99.90;;;;;;5013870;28;20113;-56
2023/02/04 00:56:42;;;;;;;13.65;3.90;;;9.50;99.90;;;;;;5014385;28;20633;-55
2023/02/04 00:59:08;;;;;;;16.58;3.83;;;9.50;99.90;;;;;;5014483;28;20401;-55
2023/02/04 01:01:33;;;;;;;9.98;3.30;;;9.40;99.90;;;;;;5013947;28;20022;-56
2023/02/04 01:03:59;;;;;;;17.40;3.30;;;9.40;99.90;;;;;;5013584;28;20084;-55
2023/02/04 01:06:25;;;;;;;7.70;2.45;;;9.40;99.90;;;;;;5014146;28;20083;-54
2023/02/04 01:08:51;;;;;;;16.48;3.78;;;9.40;99.90;;;;;;5014013;28;20026;-56
2023/02/04 01:11:17;;;;;;;9.88;2.83;;;9.50;99.90;;;;;;5014121;28;20495;-54
2023/02/04 01:13:43;;;;;;;31.55;13.32;;;9.50;99.90;;;;;;5013613;28;20469;-54
2023/02/04 01:16:08;;;;;;;17.08;5.30;;;9.40;99.90;;;;;;5014162;28;20080;-57
2023/02/04 01:18:34;;;;;;;15.60;3.50;;;9.40;99.90;;;;;;5013841;28;20668;-56
2023/02/04 01:21:00;;;;;;;17.98;3.58;;;9.40;99.90;;;;;;5014137;28;20022;-59
2023/02/04 01:23:25;;;;;;;15.23;4.28;;;9.40;99.90;;;;;;5013488;28;20036;-54
2023/02/04 01:25:51;;;;;;;18.98;3.90;;;9.50;99.90;;;;;;5014020;28;20428;-56
2023/02/04 01:28:16;;;;;;;15.40;3.25;;;9.40;99.90;;;;;;5013663;28;20034;-55
2023/02/04 01:30:42;;;;;;;10.07;3.33;;;9.40;99.90;;;;;;5013873;28;20370;-56
2023/02/04 01:33:08;;;;;;;16.60;3.50;;;9.50;99.90;;;;;;5013336;28;20034;-56
2023/02/04 01:35:33;;;;;;;14.85;4.75;;;9.50;99.90;;;;;;5013546;28;20474;-56
2023/02/04 01:37:58;;;;;;;13.05;3.33;;;9.40;99.90;;;;;;5013486;28;20053;-54
2023/02/04 01:40:24;;;;;;;20.42;3.30;;;9.40;99.90;;;;;;5012358;28;20481;-56
2023/02/04 01:42:50;;;;;;;5.80;2.63;;;9.40;99.90;;;;;;5012441;28;20034;-55
2023/02/04 01:45:16;;;;;;;14.98;4.22;;;9.30;99.90;;;;;;5013858;28;20148;-51
2023/02/04 01:47:43;;;;;;;15.98;3.72;;;9.30;99.90;;;;;;5013476;28;20501;-51
2023/02/04 01:50:13;;;;;;;17.15;3.97;;;9.20;99.90;;;;;;5013236;28;20512;-55
2023/02/04 01:52:40;;;;;;;9.75;3.90;;;9.30;99.90;;;;;;5012313;28;20041;-53
2023/02/04 01:55:13;;;;;;;13.65;2.95;;;9.30;99.90;;;;;;5012963;28;20604;-51
2023/02/04 01:57:39;;;;;;;14.50;3.13;;;9.30;99.90;;;;;;5013006;28;20037;-52
2023/02/04 02:00:13;;;;;;;15.02;3.70;;;9.30;99.90;;;;;;5013214;28;20068;-55
2023/02/04 02:02:49;;;;;;;14.07;3.50;;;9.30;99.90;;;;;;5012649;28;20103;-56
2023/02/04 02:05:20;;;;;;;17.15;3.78;;;9.20;99.90;;;;;;5012392;28;20113;-53
2023/02/04 02:07:46;;;;;;;73.28;36.03;;;9.30;99.90;;;;;;5013797;28;20026;-54
2023/02/04 02:10:13;;;;;;;28.83;10.02;;;9.30;99.90;;;;;;5013104;28;20026;-51
2023/02/04 02:12:39;;;;;;;20.08;4.05;;;9.30;99.90;;;;;;5011350;28;20030;-54
2023/02/04 02:15:06;;;;;;;16.60;4.03;;;9.30;99.90;;;;;;5011501;28;20053;-56
2023/02/04 02:17:32;;;;;;;14.07;4.68;;;9.30;99.90;;;;;;5012523;28;20034;-56
2023/02/04 02:19:58;;;;;;;9.43;2.70;;;9.30;99.90;;;;;;5012598;28;20049;-56
2023/02/04 02:22:39;;;;;;;12.57;4.63;;;9.20;99.90;;;;;;5011141;28;20559;-56
2023/02/04 02:25:12;;;;;;;17.48;4.53;;;9.20;99.90;;;;;;5012408;28;20101;-56
2023/02/04 02:27:39;;;;;;;10.98;3.83;;;9.20;99.90;;;;;;5012231;28;20477;-53
2023/02/04 02:30:07;;;;;;;17.42;4.18;;;9.10;99.90;;;;;;5011203;28;20037;-56
2023/02/04 02:32:33;;;;;;;14.38;3.88;;;9.10;99.90;;;;;;5012212;28;20026;-54
2023/02/04 02:34:58;;;;;;;11.38;3.38;;;9.10;99.90;;;;;;5012394;28;20038;-53
2023/02/04 02:37:24;;;;;;;12.48;4.32;;;9.10;99.90;;;;;;5010897;28;20021;-55
2023/02/04 02:39:49;;;;;;;10.95;3.17;;;9.10;99.90;;;;;;5012198;28;20026;-55
2023/02/04 02:42:17;;;;;;;19.65;5.45;;;9.00;99.90;;;;;;5010706;28;20339;-55
2023/02/04 02:44:45;;;;;;;19.77;5.38;;;9.00;99.90;;;;;;5010604;28;20080;-53
2023/02/04 02:47:16;;;;;;;14.63;3.33;;;9.00;99.90;;;;;;5010748;28;20049;-52
2023/02/04 02:49:42;;;;;;;20.52;4.95;;;9.00;99.90;;;;;;5012117;28;20033;-55
2023/02/04 02:52:12;;;;;;;17.05;4.22;;;9.00;99.90;;;;;;5010726;28;20022;-53
2023/02/04 02:54:39;;;;;;;19.50;3.80;;;9.10;99.90;;;;;;5011628;28;20029;-54
2023/02/04 02:57:12;;;;;;;16.10;5.03;;;9.10;99.90;;;;;;5011800;28;20124;-53
2023/02/04 02:59:37;;;;;;;16.65;5.45;;;9.10;99.90;;;;;;5012109;28;20079;-55
2023/02/04 03:02:05;;;;;;;13.48;3.90;;;9.10;99.90;;;;;;5011812;28;20030;-54
2023/02/04 03:04:33;;;;;;;17.02;4.82;;;9.00;99.90;;;;;;5011830;28;20097;-56
2023/02/04 03:07:00;;;;;;;27.13;6.75;;;9.00;99.90;;;;;;5011779;28;20037;-52
2023/02/04 03:09:27;;;;;;;15.65;4.43;;;9.00;99.90;;;;;;5011870;28;20025;-53
2023/02/04 03:11:52;;;;;;;17.52;3.63;;;9.00;99.90;;;;;;5011667;28;20030;-56
2023/02/04 03:14:19;;;;;;;21.88;5.72;;;9.00;99.90;;;;;;5011533;28;20413;-55
2023/02/04 03:16:45;;;;;;;21.42;4.80;;;9.00;99.90;;;;;;5011813;28;20065;-50
2023/02/04 03:19:11;;;;;;;28.08;5.93;;;8.90;99.90;;;;;;5010632;28;20041;-55
2023/02/04 03:21:37;;;;;;;14.82;3.80;;;8.90;99.90;;;;;;5011595;28;20366;-56
2023/02/04 03:24:03;;;;;;;27.27;5.28;;;8.80;99.90;;;;;;5011568;28;20202;-50
2023/02/04 03:26:29;;;;;;;19.27;4.47;;;8.80;99.90;;;;;;5010516;28;20658;-54
2023/02/04 03:28:55;;;;;;;16.25;4.88;;;8.80;99.90;;;;;;5012285;28;20120;-54
2023/02/04 03:31:20;;;;;;;17.08;4.80;;;8.90;99.90;;;;;;5011893;28;20022;-54
2023/02/04 03:33:46;;;;;;;14.05;4.68;;;8.90;99.90;;;;;;5011420;28;20025;-56
2023/02/04 03:36:11;;;;;;;18.35;3.92;;;8.90;99.90;;;;;;5011638;28;20397;-54
2023/02/04 03:38:37;;;;;;;21.77;4.53;;;8.90;99.90;;;;;;5011564;28;20034;-56
2023/02/04 03:41:03;;;;;;;22.65;4.53;;;8.80;99.90;;;;;;5010253;28;20041;-53
2023/02/04 03:43:28;;;;;;;14.95;4.15;;;8.70;99.90;;;;;;5009911;28;20050;-55
2023/02/04 03:45:54;;;;;;;16.00;3.90;;;8.70;99.90;;;;;;5010259;28;20084;-55
2023/02/04 03:48:19;;;;;;;17.98;4.88;;;8.60;99.90;;;;;;5011630;28;20037;-55
2023/02/04 03:50:45;;;;;;;14.13;3.65;;;8.60;99.90;;;;;;5011622;28;20037;-56
2023/02/04 03:53:11;;;;;;;15.98;3.75;;;8.60;99.90;;;;;;5009994;28;20034;-52
2023/02/04 03:55:36;;;;;;;12.45;4.20;;;8.60;99.90;;;;;;5011557;28;20030;-56
2023/02/04 03:58:03;;;;;;;15.85;3.78;;;8.60;99.90;;;;;;5011313;28;20413;-53
2023/02/04 04:00:28;;;;;;;24.90;4.60;;;8.60;99.90;;;;;;5011621;28;20500;-56
2023/02/04 04:02:54;;;;;;;22.55;4.35;;;8.60;99.90;;;;;;5011440;28;20026;-54
2023/02/04 04:05:19;;;;;;;20.05;4.28;;;8.60;99.90;;;;;;5011432;28;20029;-55
2023/02/04 04:07:45;;;;;;;18.77;4.70;;;8.60;99.90;;;;;;5014067;28;20025;-56
2023/02/04 04:10:11;;;;;;;12.27;3.47;;;8.60;99.90;;;;;;5014937;28;20032;-55
2023/02/04 04:12:36;;;;;;;14.02;3.72;;;8.60;99.90;;;;;;5014953;28;20034;-57
2023/02/04 04:15:03;;;;;;;21.35;5.57;;;8.60;99.90;;;;;;5013618;28;20026;-57
2023/02/04 04:17:28;;;;;;;22.17;4.82;;;8.60;99.90;;;;;;5014760;28;20405;-55
2023/02/04 04:19:54;;;;;;;20.88;5.05;;;8.60;99.90;;;;;;5014922;28;20022;-57
2023/02/04 04:22:20;;;;;;;22.13;4.93;;;8.60;99.90;;;;;;5014703;28;20053;-54
2023/02/04 04:24:45;;;;;;;18.50;4.40;;;8.60;99.90;;;;;;5014458;28;20022;-56
2023/02/04 04:27:11;;;;;;;19.48;4.18;;;8.60;99.90;;;;;;5014630;28;20032;-55
2023/02/04 04:29:36;;;;;;;17.95;3.55;;;8.60;99.90;;;;;;5014570;28;20492;-53
2023/02/04 04:32:04;;;;;;;16.83;4.15;;;8.60;99.90;;;;;;5014430;28;20084;-56
2023/02/04 04:34:29;;;;;;;17.50;4.30;;;8.50;99.90;;;;;;5014134;28;20105;-53
2023/02/04 04:36:55;;;;;;;19.48;5.28;;;8.60;99.90;;;;;;5014209;28;20453;-57
2023/02/04 04:39:20;;;;;;;20.75;5.15;;;8.50;99.90;;;;;;5013092;28;20109;-53
2023/02/04 04:41:46;;;;;;;21.10;5.72;;;8.40;99.90;;;;;;5014174;28;20018;-55
2023/02/04 04:44:11;;;;;;;17.77;5.30;;;8.30;99.90;;;;;;5013849;28;20099;-56
2023/02/04 04:46:39;;;;;;;17.70;4.80;;;8.30;99.90;;;;;;5014153;28;20540;-55
2023/02/04 04:49:05;;;;;;;20.88;4.88;;;8.20;99.90;;;;;;5013963;28;20057;-55
2023/02/04 04:51:31;;;;;;;26.42;4.35;;;8.20;99.90;;;;;;5012759;28;20089;-56
2023/02/04 04:53:57;;;;;;;20.00;4.38;;;8.10;99.90;;;;;;5012422;28;20539;-56
2023/02/04 04:56:23;;;;;;;20.75;4.22;;;8.10;99.90;;;;;;5013876;28;20026;-56
2023/02/04 04:58:48;;;;;;;20.77;5.38;;;8.10;99.90;;;;;;5013865;28;20037;-52
2023/02/04 05:01:14;;;;;;;19.58;5.07;;;8.10;99.90;;;;;;5013788;28;20029;-53
2023/02/04 05:03:39;;;;;;;21.98;4.70;;;8.10;99.90;;;;;;5013417;28;20049;-56
2023/02/04 05:06:05;;;;;;;16.92;5.57;;;8.10;99.90;;;;;;5014084;28;20026;-56
2023/02/04 05:08:30;;;;;;;15.80;3.97;;;8.10;99.90;;;;;;5014283;28;20029;-54
2023/02/04 05:10:56;;;;;;;26.23;5.63;;;8.10;99.90;;;;;;5013948;28;20088;-56
2023/02/04 05:13:24;;;;;;;18.02;4.38;;;8.10;99.90;;;;;;5013458;28;20521;-55
2023/02/04 05:15:49;;;;;;;17.30;4.15;;;8.10;99.90;;;;;;5013533;28;20033;-56
2023/02/04 05:18:15;;;;;;;17.13;4.60;;;8.10;99.90;;;;;;5012151;28;20037;-57
2023/02/04 05:20:40;;;;;;;17.65;4.30;;;8.10;99.90;;;;;;5013531;28;20026;-54
2023/02/04 05:23:06;;;;;;;11.68;3.65;;;8.10;99.90;;;;;;5013031;28;20029;-56
2023/02/04 05:25:32;;;;;;;21.70;4.85;;;8.10;99.90;;;;;;5013404;28;20029;-55
2023/02/04 05:27:57;;;;;;;18.20;4.63;;;8.00;99.90;;;;;;5013428;28;20084;-55
2023/02/04 05:30:23;;;;;;;24.88;4.53;;;8.00;99.90;;;;;;5013364;28;20091;-54
2023/02/04 05:32:48;;;;;;;17.50;4.80;;;8.00;99.90;;;;;;5012917;28;20030;-48
2023/02/04 05:35:14;;;;;;;22.30;5.85;;;8.00;99.90;;;;;;5013483;28;20033;-56
2023/02/04 05:37:40;;;;;;;24.52;6.43;;;8.00;99.90;;;;;;5012865;28;20073;-55
2023/02/04 05:40:06;;;;;;;19.42;4.63;;;8.00;99.90;;;;;;5013066;28;20041;-54
2023/02/04 05:42:31;;;;;;;18.35;4.35;;;8.00;99.90;;;;;;5012914;28;20022;-52
2023/02/04 05:44:57;;;;;;;22.42;5.30;;;7.90;99.90;;;;;;5012832;28;20029;-55
2023/02/04 05:47:23;;;;;;;21.42;5.97;;;7.90;99.90;;;;;;5012983;28;20089;-53
2023/02/04 05:49:48;;;;;;;17.48;4.57;;;7.90;99.90;;;;;;5012880;28;20034;-54
2023/02/04 05:52:14;;;;;;;20.92;4.80;;;7.80;99.90;;;;;;5011311;28;20080;-56
2023/02/04 05:54:39;;;;;;;16.70;4.47;;;7.80;99.90;;;;;;5047395;22;20042;-47
2023/02/04 05:57:06;;;;;;;24.83;4.97;;;7.80;99.90;;;;;;5032251;28;20022;-52
2023/02/04 05:59:31;;;;;;;19.05;4.03;;;7.80;99.90;;;;;;5032279;28;20057;-47
2023/02/04 06:01:57;;;;;;;26.15;5.13;;;7.90;99.90;;;;;;5032221;28;20436;-48
2023/02/04 06:04:22;;;;;;;26.20;7.05;;;7.90;99.90;;;;;;5031972;28;20092;-48
2023/02/04 06:06:48;;;;;;;26.38;5.40;;;7.90;99.90;;;;;;5032222;28;20132;-51
2023/02/04 06:09:13;;;;;;;17.85;4.60;;;7.90;99.90;;;;;;5032291;28;20025;-50
2023/02/04 06:11:39;;;;;;;22.42;5.38;;;7.90;99.90;;;;;;5032270;28;20018;-46
2023/02/04 06:14:05;;;;;;;20.75;4.65;;;7.90;99.90;;;;;;5032575;28;20040;-47
2023/02/04 06:16:30;;;;;;;23.67;4.88;;;8.00;99.90;;;;;;5014659;28;20070;-47
2023/02/04 06:18:55;;;;;;;29.30;5.68;;;8.00;99.90;;;;;;5032056;28;20034;-47
2023/02/04 06:21:21;;;;;;;23.55;5.25;;;8.00;99.90;;;;;;5032024;28;20330;-52
2023/02/04 06:23:46;;;;;;;21.17;5.43;;;8.00;99.90;;;;;;5031875;28;20104;-48
2023/02/04 06:26:12;;;;;;;22.33;5.78;;;8.10;99.90;;;;;;5031983;28;20064;-48
2023/02/04 06:28:38;;;;;;;24.23;5.00;;;8.10;99.90;;;;;;5031910;28;20072;-47
2023/02/04 06:31:03;;;;;;;18.13;6.18;;;8.10;99.90;;;;;;5031676;28;20145;-49
2023/02/04 06:33:29;;;;;;;18.77;5.38;;;8.10;99.90;;;;;;5013816;28;20032;-49
2023/02/04 06:35:54;;;;;;;13.15;4.30;;;8.10;99.90;;;;;;5031877;28;20566;-50
2023/02/04 06:38:20;;;;;;;21.50;5.07;;;8.10;99.90;;;;;;5031827;28;20378;-47
2023/02/04 06:40:52;;;;;;;21.40;5.28;;;8.10;99.90;;;;;;5031879;28;20029;-53
2023/02/04 06:43:18;;;;;;;16.40;4.88;;;8.00;99.90;;;;;;5031291;28;20562;-47
2023/02/04 06:45:43;;;;;;;20.00;5.07;;;8.00;99.90;;;;;;5013836;28;20065;-51
2023/02/04 06:48:09;;;;;;;21.45;6.53;;;8.00;99.90;;;;;;5031645;28;20044;-51
2023/02/04 06:50:34;;;;;;;25.77;4.32;;;8.10;99.90;;;;;;5031643;28;20041;-51
2023/02/04 06:53:00;;;;;;;25.10;5.10;;;8.10;99.90;;;;;;5031521;28;20033;-48
2023/02/04 06:55:25;;;;;;;19.00;4.05;;;8.20;99.90;;;;;;5031191;28;20483;-50
2023/02/04 06:57:51;;;;;;;18.10;4.55;;;8.20;99.90;;;;;;5031300;28;20060;-48
2023/02/04 07:00:16;;;;;;;16.17;4.32;;;8.20;99.90;;;;;;5031454;28;20029;-50
2023/02/04 07:02:42;;;;;;;21.10;4.60;;;8.30;99.90;;;;;;5031443;28;20079;-48
2023/02/04 07:05:08;;;;;;;20.50;4.30;;;8.20;99.90;;;;;;5031169;28;20037;-50
2023/02/04 07:07:34;;;;;;;20.95;5.20;;;8.20;99.90;;;;;;5031308;28;20032;-53
2023/02/04 07:10:00;;;;;;;17.65;5.18;;;8.20;99.90;;;;;;5031386;28;20450;-45
2023/02/04 07:12:25;;;;;;;27.00;5.30;;;8.10;99.90;;;;;;5031408;28;20792;-47
2023/02/04 07:14:51;;;;;;;22.50;5.35;;;8.00;99.90;;;;;;5031225;28;20030;-51
2023/02/04 07:17:16;;;;;;;24.30;4.93;;;8.10;99.90;;;;;;5031839;28;20051;-50
2023/02/04 07:19:42;;;;;;;23.33;5.43;;;8.00;99.90;;;;;;5031431;28;20026;-49
2023/02/04 07:22:07;;;;;;;25.60;5.97;;;8.00;99.90;;;;;;5031348;28;20029;-45
2023/02/04 07:24:33;;;;;;;25.50;5.00;;;8.10;99.90;;;;;;5031220;28;20029;-48
2023/02/04 07:26:58;;;;;;;15.57;4.20;;;8.20;99.90;;;;;;5031434;28;20029;-48
2023/02/04 07:29:24;;;;;;;19.25;4.65;;;8.20;99.90;;;;;;5031432;28;20463;-50
2023/02/04 07:31:53;;;;;;;18.95;4.78;;;8.30;99.90;;;;;;5032090;28;20404;-46
2023/02/04 07:34:19;;;;;;;24.42;5.20;;;8.20;99.90;;;;;;5015419;28;20029;-48
2023/02/04 07:36:44;;;;;;;22.25;4.72;;;8.20;99.90;;;;;;5031939;28;20224;-49
2023/02/04 07:39:10;;;;;;;23.35;6.65;;;8.20;99.90;;;;;;5013485;28;20485;-46
2023/02/04 07:41:36;;;;;;;25.88;6.07;;;8.30;99.90;;;;;;5031886;28;20044;-48
2023/02/04 07:44:02;;;;;;;22.50;4.25;;;8.30;99.90;;;;;;5034801;28;20040;-47
2023/02/04 07:46:27;;;;;;;25.98;6.38;;;8.40;99.90;;;;;;5035333;28;20033;-46
2023/02/04 07:48:53;;;;;;;19.95;5.40;;;8.50;99.90;;;;;;5035226;28;20032;-48
2023/02/04 07:51:19;;;;;;;18.10;6.07;;;8.50;99.90;;;;;;5035409;28;20148;-47
2023/02/04 07:53:44;;;;;;;22.48;5.63;;;8.60;99.90;;;;;;5040130;28;20040;-49
2023/02/04 07:56:10;;;;;;;25.42;5.70;;;8.60;99.90;;;;;;5038293;28;20036;-47
2023/02/04 07:58:35;;;;;;;18.10;4.78;;;8.70;99.90;;;;;;5034608;28;20083;-52
2023/02/04 08:01:01;;;;;;;34.67;5.72;;;8.70;99.90;;;;;;5034768;28;20148;-47
2023/02/04 08:03:27;;;;;;;30.13;5.93;;;8.80;99.90;;;;;;5034326;28;20108;-49
2023/02/04 08:05:53;;;;;;;31.77;6.47;;;8.90;99.90;;;;;;5034743;28;20100;-47
2023/02/04 08:08:19;;;;;;;27.77;4.88;;;8.90;99.90;;;;;;5034579;28;20029;-49
2023/02/04 08:10:45;;;;;;;23.70;4.88;;;8.90;99.90;;;;;;5034518;28;20034;-51
2023/02/04 08:13:10;;;;;;;25.90;5.45;;;8.90;99.90;;;;;;5034361;28;20076;-50
2023/02/04 08:15:36;;;;;;;24.90;5.57;;;8.90;99.90;;;;;;5034426;28;20034;-49
2023/02/04 08:18:01;;;;;;;27.17;6.03;;;9.00;99.90;;;;;;5034325;28;20057;-50
2023/02/04 08:20:27;;;;;;;30.02;5.57;;;9.00;99.90;;;;;;5034068;28;20096;-49
2023/02/04 08:22:52;;;;;;;19.75;4.95;;;9.10;99.90;;;;;;5033833;28;20025;-51
2023/02/04 08:25:18;;;;;;;24.27;6.50;;;9.20;99.90;;;;;;5034111;28;20500;-48
2023/02/04 08:27:44;;;;;;;26.60;6.80;;;9.30;99.90;;;;;;5034286;28;20088;-50
2023/02/04 08:30:10;;;;;;;23.17;5.60;;;9.40;99.90;;;;;;5033683;28;20032;-51
2023/02/04 08:32:35;;;;;;;35.20;6.68;;;9.50;99.90;;;;;;5034463;28;20045;-46
2023/02/04 08:35:01;;;;;;;23.17;5.63;;;9.50;99.90;;;;;;5034420;28;20021;-52
2023/02/04 08:37:26;;;;;;;20.10;6.47;;;9.50;99.90;;;;;;5034200;28;20040;-53
2023/02/04 08:39:52;;;;;;;26.88;5.60;;;9.60;99.90;;;;;;5034164;28;20131;-48
2023/02/04 08:42:18;;;;;;;27.23;5.22;;;9.80;99.90;;;;;;5033834;28;20031;-52
2023/02/04 08:44:44;;;;;;;21.75;5.20;;;9.90;99.90;;;;;;5033285;28;20018;-48
2023/02/04 08:47:10;;;;;;;22.35;5.00;;;9.90;99.90;;;;;;5033796;28;20075;-55
2023/02/04 08:49:36;;;;;;;21.45;5.05;;;10.00;99.90;;;;;;5033956;28;20159;-48
2023/02/04 08:52:03;;;;;;;31.13;6.20;;;10.10;99.90;;;;;;5033468;28;20037;-52
2023/02/04 08:54:29;;;;;;;25.45;6.57;;;10.00;99.90;;;;;;5015758;28;20036;-51
2023/02/04 08:56:54;;;;;;;23.20;5.80;;;10.00;99.90;;;;;;5033488;28;20447;-47
2023/02/04 08:59:22;;;;;;;31.95;5.70;;;10.10;99.90;;;;;;5033624;28;20362;-46
2023/02/04 09:01:51;;;;;;;29.90;5.60;;;10.20;99.90;;;;;;5033475;28;20014;-49
2023/02/04 09:04:20;;;;;;;22.83;5.47;;;10.50;99.90;;;;;;5015620;28;20030;-51
2023/02/04 09:06:46;;;;;;;27.83;5.65;;;10.40;99.90;;;;;;5028856;28;20037;-50
2023/02/04 09:09:12;;;;;;;30.40;5.18;;;10.20;99.90;;;;;;5033819;28;20029;-49
2023/02/04 09:11:38;;;;;;;27.40;5.63;;;10.20;99.90;;;;;;5015246;28;20035;-47
2023/02/04 09:14:03;;;;;;;17.60;5.25;;;10.20;99.90;;;;;;5031853;28;20505;-46
2023/02/04 09:16:29;;;;;;;22.67;4.93;;;10.20;99.90;;;;;;5033763;28;20105;-52
2023/02/04 09:18:55;;;;;;;27.15;6.07;;;10.30;99.90;;;;;;5032664;28;20033;-52
2023/02/04 09:21:20;;;;;;;26.83;5.53;;;10.30;99.90;;;;;;5031854;28;20025;-47
2023/02/04 09:23:47;;;;;;;22.23;4.47;;;10.40;99.90;;;;;;5032602;28;20030;-48
2023/02/04 09:26:12;;;;;;;24.85;5.28;;;10.30;99.90;;;;;;5032441;28;20017;-49
2023/02/04 09:28:38;;;;;;;17.05;4.50;;;10.40;99.90;;;;;;5032424;28;20038;-47
2023/02/04 09:31:05;;;;;;;25.58;5.32;;;10.20;99.90;;;;;;5029230;28;20030;-47
2023/02/04 09:33:31;;;;;;;23.60;4.43;;;9.80;99.90;;;;;;5031133;28;20026;-47
2023/02/04 09:35:57;;;;;;;22.83;4.10;;;9.80;99.90;;;;;;5032666;28;20037;-50
2023/02/04 09:38:22;;;;;;;38.88;5.10;;;9.70;99.90;;;;;;5031865;28;20037;-49
2023/02/04 09:40:54;;;;;;;20.40;5.25;;;9.50;99.90;;;;;;5014435;28;20032;-46
2023/02/04 09:43:24;;;;;;;31.50;5.25;;;9.50;99.90;;;;;;5031535;28;20056;-51
2023/02/04 09:45:50;;;;;;;20.55;4.38;;;9.40;99.90;;;;;;5032301;28;20485;-48
2023/02/04 09:48:17;;;;;;;30.02;5.45;;;9.50;99.90;;;;;;5032274;28;20048;-46
2023/02/04 09:50:43;;;;;;;21.27;5.30;;;9.50;99.90;;;;;;5032583;28;20029;-45
2023/02/04 09:53:13;;;;;;;17.00;4.70;;;9.60;99.90;;;;;;5031875;28;20402;-46
2023/02/04 09:55:44;;;;;;;21.20;5.07;;;9.80;99.90;;;;;;5014470;28;20044;-48
2023/02/04 09:58:13;;;;;;;30.20;6.28;;;10.00;99.90;;;;;;5032013;28;20033;-46
2023/02/04 10:00:38;;;;;;;24.88;4.63;;;10.20;99.90;;;;;;5031927;28;20033;-47
2023/02/04 10:03:17;;;;;;;22.25;4.03;;;10.50;99.90;;;;;;5013717;28;20448;-46
2023/02/04 10:05:44;;;;;;;16.85;4.22;;;10.80;99.90;;;;;;5031978;28;20525;-47
2023/02/04 10:08:23;;;;;;;18.83;5.15;;;11.10;99.90;;;;;;5047601;28;20029;-48
2023/02/04 10:10:49;;;;;;;32.95;10.18;;;11.20;99.90;;;;;;5032662;28;20033;-50
2023/02/04 10:13:19;;;;;;;24.85;5.80;;;11.20;99.90;;;;;;5026270;28;20032;-46
2023/02/04 10:15:46;;;;;;;21.90;4.75;;;11.10;99.90;;;;;;5053466;28;20021;-53
2023/02/04 10:18:24;;;;;;;22.45;4.35;;;11.00;99.90;;;;;;5053353;28;20032;-50
2023/02/04 10:20:50;;;;;;;16.98;4.70;;;10.80;99.90;;;;;;5045348;28;20021;-51
2023/02/04 10:23:16;;;;;;;23.17;3.60;;;10.60;99.90;;;;;;5031775;28;20485;-47
2023/02/04 10:25:42;;;;;;;25.90;4.63;;;10.30;99.90;;;;;;5031866;28;20129;-48
2023/02/04 10:28:07;;;;;;;23.15;5.10;;;10.10;99.90;;;;;;5031908;28;20026;-51
2023/02/04 10:30:42;;;;;;;20.23;4.60;;;10.00;99.90;;;;;;5032046;28;20022;-47
2023/02/04 10:33:13;;;;;;;21.03;3.33;;;9.80;99.90;;;;;;5032236;28;20105;-49
2023/02/04 10:35:51;;;;;;;16.25;4.15;;;9.70;99.90;;;;;;5031338;28;20027;-48
2023/02/04 10:38:16;;;;;;;25.30;3.78;;;9.50;99.90;;;;;;5031728;28;20037;-49
2023/02/04 10:40:42;;;;;;;15.07;3.50;;;9.50;99.90;;;;;;5032219;28;20029;-48
2023/02/04 10:43:10;;;;;;;23.77;3.92;;;9.50;99.90;;;;;;5031520;28;20022;-51
2023/02/04 10:45:37;;;;;;;9.68;2.65;;;9.60;99.90;;;;;;5031911;28;20117;-51
2023/02/04 10:48:03;;;;;;;17.02;3.58;;;9.60;99.90;;;;;;5031876;28;20018;-47
2023/02/04 10:50:29;;;;;;;18.58;4.53;;;9.50;99.90;;;;;;5030816;28;20108;-50
2023/02/04 10:55:46;;;;;;;16.80;3.45;;;9.60;99.90;;;;;;5014662;28;20048;-53
2023/02/04 10:58:16;;;;;;;14.48;3.20;;;9.50;99.90;;;;;;5031982;28;20036;-48
2023/02/04 11:00:41;;;;;;;14.15;3.38;;;9.40;99.90;;;;;;5031891;28;20184;-49
2023/02/04 11:03:29;;;;;;;13.50;3.38;;;9.20;99.90;;;;;;5031523;28;20463;-49
2023/02/04 11:05:57;;;;;;;10.45;3.22;;;9.20;99.90;;;;;;5031915;28;20094;-51
2023/02/04 11:08:27;;;;;;;22.15;3.42;;;9.10;99.90;;;;;;5030905;28;20037;-49
2023/02/04 11:11:07;;;;;;;20.13;3.90;;;9.20;99.90;;;;;;5031508;28;20033;-48
2023/02/04 11:13:45;;;;;;;15.23;4.10;;;9.20;99.90;;;;;;5030398;28;20033;-47
2023/02/04 11:16:29;;;;;;;11.10;2.80;;;9.20;99.90;;;;;;5031810;28;20037;-49
2023/02/04 11:19:09;;;;;;;22.02;4.13;;;9.20;99.90;;;;;;5031063;28;20053;-48
2023/02/04 11:21:35;;;;;;;16.38;3.92;;;9.20;99.90;;;;;;5044344;28;20492;-47
2023/02/04 11:24:12;;;;;;;14.90;3.53;;;9.20;99.90;;;;;;5051539;28;20025;-44
2023/02/04 11:26:51;;;;;;;15.60;3.72;;;9.30;99.90;;;;;;5051440;28;20021;-47
2023/02/04 11:29:26;;;;;;;15.48;3.90;;;9.30;99.90;;;;;;5035920;28;20017;-48
2023/02/04 11:31:51;;;;;;;23.08;3.53;;;9.40;99.90;;;;;;5030203;28;20064;-52
2023/02/04 11:34:20;;;;;;;15.68;3.58;;;9.40;99.90;;;;;;5031098;28;20022;-50
2023/02/04 11:37:01;;;;;;;16.55;2.92;;;9.50;99.90;;;;;;5026362;28;20025;-51
2023/02/04 11:39:38;;;;;;;19.60;5.03;;;9.60;99.90;;;;;;5011381;28;20022;-49
2023/02/04 11:42:05;;;;;;;20.83;4.35;;;9.60;99.90;;;;;;5026563;28;20025;-48
2023/02/04 11:44:32;;;;;;;16.40;4.05;;;9.40;99.90;;;;;;5029845;28;20393;-53
2023/02/04 11:46:59;;;;;;;13.77;3.30;;;9.40;99.90;;;;;;5031313;28;20477;-48
2023/02/04 11:49:26;;;;;;;19.73;3.90;;;9.50;99.90;;;;;;5013780;28;20048;-49
2023/02/04 11:52:09;;;;;;;18.70;4.10;;;9.40;99.90;;;;;;5030673;28;20190;-51
2023/02/04 11:54:35;;;;;;;13.63;3.70;;;9.50;99.90;;;;;;5056017;23;20120;-57
2023/02/04 11:57:01;;;;;;;17.20;4.00;;;9.60;99.90;;;;;;5050395;28;20108;-59
2023/02/04 11:59:26;;;;;;;15.93;4.90;;;9.70;99.90;;;;;;5046078;28;20025;-57
2023/02/04 12:02:13;;;;;;;20.33;4.18;;;9.60;99.90;;;;;;5031087;28;20031;-55
2023/02/04 12:04:49;;;;;;;17.50;3.83;;;9.50;99.90;;;;;;5021095;28;20018;-56
2023/02/04 12:07:22;;;;;;;19.55;4.13;;;9.50;99.90;;;;;;5008113;28;20034;-54
2023/02/04 12:09:48;;;;;;;12.82;4.10;;;9.50;99.90;;;;;;5030576;28;20022;-53
2023/02/04 12:12:26;;;;;;;20.42;4.40;;;9.40;99.90;;;;;;5030271;28;20439;-52
2023/02/04 12:15:12;;;;;;;12.75;3.30;;;9.30;99.90;;;;;;5018675;28;20029;-51
2023/02/04 12:17:38;;;;;;;15.02;3.13;;;9.30;99.90;;;;;;5026863;28;20037;-56
2023/02/04 12:20:03;;;;;;;18.27;4.55;;;9.30;99.90;;;;;;5025502;28;20079;-53
2023/02/04 12:22:29;;;;;;;18.98;3.50;;;9.30;99.90;;;;;;5028550;28;20025;-52
2023/02/04 12:24:54;;;;;;;13.85;2.65;;;9.30;99.90;;;;;;5010874;28;20141;-54
2023/02/04 12:27:23;;;;;;;15.48;4.40;;;9.30;99.90;;;;;;4994733;28;20033;-55
2023/02/04 12:29:48;;;;;;;33.88;10.27;;;9.40;99.90;;;;;;4998071;28;20025;-56
2023/02/04 12:32:14;;;;;;;13.45;3.92;;;9.40;99.90;;;;;;5015435;28;20447;-51
2023/02/04 12:34:39;;;;;;;15.20;2.85;;;9.50;99.90;;;;;;5033514;28;20033;-54
2023/02/04 12:37:05;;;;;;;18.85;3.83;;;9.50;99.90;;;;;;5031969;28;20042;-53
2023/02/04 12:39:30;;;;;;;14.15;3.17;;;9.50;99.90;;;;;;5033493;28;20021;-53
2023/02/04 12:41:56;;;;;;;18.58;3.50;;;9.50;99.90;;;;;;5032391;28;20519;-59
2023/02/04 12:44:22;;;;;;;16.92;3.67;;;9.50;99.90;;;;;;5016640;28;20022;-54
2023/02/04 12:46:47;;;;;;;14.27;3.10;;;9.40;99.90;;;;;;4998651;28;20021;-55